Terminal Aerodrome Forecast
Issued by NWS

Home | Current Version | Previous Version | Graphics & Text | Print | Product List | Glossary On
Versions: 1 2 3 4 5 6 7 8 9 10 11 12 13 14 15 16 17 18 19 20 21 22
831
FTUS43 KGRB 202328
TAFCWA
TAF
KCWA 202328Z 2100/2124 24005KT P6SM VCSH BKN035 BKN050
     FM210100 32004KT P6SM SCT035
      TEMPO 2104/2108 3SM BR
     FM210800 03004KT 3SM BR SCT005
      TEMPO 2109/2113 1SM BR BKN003
     FM211400 11007KT P6SM BKN012
     FM211900 12007KT P6SM SCT030=

USA.gov is the U.S. government's official web portal to all federal, state and local government web resources and services.